Terminal Aerodrome Forecast
Issued by NWS

Home | Current Version | Previous Version | Text Only | Print | Product List | Glossary On
Versions: 1 2 3 4 5 6 7 8 9 10 11 12 13 14 15 16 17 18 19 20
789
FTUS41 KPBZ 100520
TAFFKL
TAF
KFKL 100520Z 1006/1106 25008KT 2SM -SHSN OVC011
     FM100900 26010KT 1 1/2SM -SHSN OVC007
     FM101900 25010KT 1SM -SHSN OVC007
     FM102100 29010G18KT 1/2SM SHSN OVC005
      AMD LTD TO CLD VIS AND WIND=

USA.gov is the U.S. government's official web portal to all federal, state and local government web resources and services.